Time;durP1;ratioP1;P1;durP2;ratioP2;P2;SDS_P1;SDS_P2;PMS_P1;PMS_P2;Temp;Humidity;BMP_temperature;BMP_pressure;BME280_temperature;BME280_humidity;BME280_pressure;Samples;Min_cycle;Max_cycle;Signal;HPM_P1;HPM_P2
2021/07/09 00:01:25;;;;;;;;;8.67;8.00;;;;;-149.00;100.00;66333.84;5104766;27;45713;-81
2021/07/09 00:03:50;;;;;;;;;11.33;10.33;;;;;-149.00;100.00;66333.84;5104617;27;45243;-81
2021/07/09 00:06:19;;;;;;;;;8.67;8.67;;;;;-149.00;100.00;66333.84;5103327;27;45280;-81
2021/07/09 00:08:44;;;;;;;;;9.00;9.00;;;;;-149.00;100.00;66333.84;5103881;27;45916;-81
2021/07/09 00:11:10;;;;;;;;;9.67;7.67;;;;;-149.00;100.00;66333.84;5087435;27;47075;-81
2021/07/09 00:13:35;;;;;;;;;9.00;9.00;;;;;-149.00;100.00;66333.84;5106810;27;45397;-80
2021/07/09 00:16:00;;;;;;;;;9.67;9.67;;;;;-149.00;100.00;66333.84;5103099;27;45330;-80
2021/07/09 00:18:26;;;;;;;;;12.00;11.00;;;;;-149.00;100.00;66333.84;5084362;27;46103;-80
2021/07/09 00:20:51;;;;;;;;;11.33;11.00;;;;;-149.00;100.00;66333.84;5084266;27;47425;-80
2021/07/09 00:23:17;;;;;;;;;10.67;10.33;;;;;-149.00;100.00;66333.84;5102719;27;45214;-80
2021/07/09 00:25:42;;;;;;;;;11.00;11.00;;;;;-149.00;100.00;66333.84;5102846;27;45278;-80
2021/07/09 00:28:08;;;;;;;;;11.00;11.00;;;;;-149.00;100.00;66333.84;5102591;27;45273;-80
2021/07/09 00:30:33;;;;;;;;;10.33;9.33;;;;;-149.00;100.00;66333.84;5102614;27;46139;-81
2021/07/09 00:32:59;;;;;;;;;10.67;9.33;;;;;-149.00;100.00;66333.84;5102326;27;45383;-80
2021/07/09 00:35:24;;;;;;;;;9.00;9.00;;;;;-149.00;100.00;66333.84;5102946;27;45240;-81
2021/07/09 00:37:50;;;;;;;;;10.33;9.33;;;;;-149.00;100.00;66333.84;5102693;27;45182;-81
2021/07/09 00:40:16;;;;;;;;;10.33;10.33;;;;;-149.00;100.00;66333.84;5102944;27;45309;-81
2021/07/09 00:42:42;;;;;;;;;10.33;9.67;;;;;-149.00;100.00;66333.84;5105106;27;45322;-81
2021/07/09 00:45:09;;;;;;;;;11.00;11.00;;;;;-149.00;100.00;66333.84;5102526;27;45335;-80
2021/07/09 00:47:35;;;;;;;;;8.67;8.00;;;;;-149.00;100.00;66333.84;5083964;27;45398;-81
2021/07/09 00:50:00;;;;;;;;;8.33;7.67;;;;;-149.00;100.00;66333.84;5102293;27;45361;-81
2021/07/09 00:52:26;;;;;;;;;10.00;9.33;;;;;-149.00;100.00;66333.84;5102543;27;45327;-81
2021/07/09 00:54:52;;;;;;;;;9.33;9.00;;;;;-149.00;100.00;66333.84;5102398;27;45253;-80
2021/07/09 00:57:17;;;;;;;;;8.67;8.67;;;;;-149.00;100.00;66333.84;5106019;27;46005;-81
2021/07/09 00:59:43;;;;;;;;;9.00;9.00;;;;;-149.00;100.00;66333.84;5103785;27;45273;-81
2021/07/09 01:02:09;;;;;;;;;10.67;10.00;;;;;-149.00;100.00;66333.84;5102087;27;45307;-81
2021/07/09 01:04:34;;;;;;;;;12.67;11.00;;;;;-149.00;100.00;66333.84;5102441;27;45522;-81
2021/07/09 01:07:00;;;;;;;;;11.67;10.67;;;;;-149.00;100.00;66333.84;5102068;27;45219;-81
2021/07/09 01:09:26;;;;;;;;;12.00;11.67;;;;;-149.00;100.00;66333.84;5101820;27;45220;-80
2021/07/09 01:11:51;;;;;;;;;10.67;10.00;;;;;-149.00;100.00;66333.84;5102006;27;45423;-80
2021/07/09 01:14:21;;;;;;;;;10.67;10.33;;;;;-149.00;100.00;66333.84;5102015;27;45781;-81
2021/07/09 01:16:47;;;;;;;;;9.00;8.00;;;;;-149.00;100.00;66333.84;5102050;27;45274;-80
2021/07/09 01:19:17;;;;;;;;;10.00;8.67;;;;;-149.00;100.00;66333.84;5101703;27;45263;-80
2021/07/09 01:21:44;;;;;;;;;8.33;8.33;;;;;-149.00;100.00;66333.84;5083675;27;46059;-81
2021/07/09 01:24:10;;;;;;;;;12.33;11.00;;;;;-149.00;100.00;66333.84;5102817;27;45371;-81
2021/07/09 01:26:37;;;;;;;;;13.00;13.00;;;;;-149.00;100.00;66333.84;5101402;27;45359;-81
2021/07/09 01:29:04;;;;;;;;;11.00;11.00;;;;;-149.00;100.00;66333.84;5101736;27;46289;-81
2021/07/09 01:31:30;;;;;;;;;12.67;12.00;;;;;-149.00;100.00;66333.84;5101316;27;45453;-80
2021/07/09 01:33:55;;;;;;;;;11.00;11.00;;;;;-149.00;100.00;66333.84;5101215;27;45496;-80
2021/07/09 01:36:21;;;;;;;;;8.00;6.67;;;;;-149.00;100.00;66333.84;5101692;27;45439;-80
2021/07/09 01:38:47;;;;;;;;;8.67;7.00;;;;;-149.00;100.00;66333.84;5101878;27;46034;-80
2021/07/09 01:41:13;;;;;;;;;7.33;7.33;;;;;-149.00;100.00;66333.84;5084158;27;46168;-81
2021/07/09 01:43:39;;;;;;;;;11.00;9.67;;;;;-149.00;100.00;66333.84;5104011;27;45320;-80
2021/07/09 01:46:04;;;;;;;;;10.33;10.00;;;;;-149.00;100.00;66333.84;5102811;27;45323;-80
2021/07/09 01:48:29;;;;;;;;;9.67;9.67;;;;;-149.00;100.00;66333.84;5105669;27;45299;-81
2021/07/09 01:50:55;;;;;;;;;8.00;8.00;;;;;-149.00;100.00;66333.84;5104450;27;45337;-80
2021/07/09 01:53:21;;;;;;;;;10.00;10.00;;;;;-149.00;100.00;66333.84;5101111;27;45359;-80
2021/07/09 01:55:46;;;;;;;;;11.00;9.00;;;;;-149.00;100.00;66333.84;5101442;27;45429;-81
2021/07/09 01:58:12;;;;;;;;;11.00;9.00;;;;;-149.00;100.00;66333.84;5101146;27;45186;-80
2021/07/09 02:00:37;;;;;;;;;11.33;11.33;;;;;-149.00;100.00;66333.84;5082814;27;45276;-80
2021/07/09 02:03:03;;;;;;;;;11.00;11.00;;;;;-149.00;100.00;66333.84;5104777;27;45425;-80
2021/07/09 02:05:28;;;;;;;;;9.00;8.00;;;;;-149.00;100.00;66333.84;5102429;27;45242;-81
2021/07/09 02:07:56;;;;;;;;;10.33;10.33;;;;;-149.00;100.00;66333.84;5104167;27;45255;-80
2021/07/09 02:10:25;;;;;;;;;8.00;8.00;;;;;-149.00;100.00;66333.84;5102739;27;45486;-80
2021/07/09 02:12:54;;;;;;;;;7.00;7.00;;;;;-149.00;100.00;66333.84;5082824;27;45339;-80
2021/07/09 02:15:23;;;;;;;;;12.00;8.67;;;;;-149.00;100.00;66333.84;5102645;27;45412;-81
2021/07/09 02:17:48;;;;;;;;;8.67;8.00;;;;;-149.00;100.00;66333.84;5102778;27;46045;-80
2021/07/09 02:20:17;;;;;;;;;9.00;8.67;;;;;-149.00;100.00;66333.84;5101273;27;45316;-80
2021/07/09 02:22:44;;;;;;;;;7.00;6.67;;;;;-149.00;100.00;66333.84;5082689;27;45300;-82
2021/07/09 02:25:09;;;;;;;;;7.67;7.67;;;;;-149.00;100.00;66333.84;5100596;27;45312;-81
2021/07/09 02:27:36;;;;;;;;;11.33;11.33;;;;;-149.00;100.00;66333.84;5100665;27;45345;-80
2021/07/09 02:30:11;;;;;;;;;10.67;10.67;;;;;-149.00;100.00;66333.84;5103670;27;45309;-80
2021/07/09 02:32:38;;;;;;;;;8.33;7.33;;;;;-149.00;100.00;66333.84;5100826;27;45483;-80
2021/07/09 02:35:05;;;;;;;;;7.00;7.00;;;;;-149.00;100.00;66333.84;5100455;27;45375;-81
2021/07/09 02:37:31;;;;;;;;;9.67;9.67;;;;;-149.00;100.00;66333.84;5100524;27;46794;-80
2021/07/09 02:39:57;;;;;;;;;10.00;10.00;;;;;-149.00;100.00;66333.84;5100497;27;45249;-80
2021/07/09 02:42:23;;;;;;;;;9.00;8.00;;;;;-149.00;100.00;66333.84;5082387;27;45291;-80
2021/07/09 02:44:48;;;;;;;;;9.00;8.00;;;;;-149.00;100.00;66333.84;5100843;27;45260;-81
2021/07/09 02:47:13;;;;;;;;;8.33;8.33;;;;;-149.00;100.00;66333.84;5100701;27;45190;-81
2021/07/09 02:49:39;;;;;;;;;14.67;11.33;;;;;-149.00;100.00;66333.84;5100600;27;45193;-80
2021/07/09 02:52:05;;;;;;;;;9.33;8.67;;;;;-149.00;100.00;66333.84;5100202;27;45271;-80
2021/07/09 02:54:30;;;;;;;;;8.33;8.33;;;;;-149.00;100.00;66333.84;5100312;27;45498;-80
2021/07/09 02:56:56;;;;;;;;;8.00;8.00;;;;;-149.00;100.00;66333.84;5100563;27;46119;-80
2021/07/09 02:59:22;;;;;;;;;12.00;10.67;;;;;-149.00;100.00;66333.84;5100523;27;45293;-80
2021/07/09 03:01:47;;;;;;;;;7.00;7.00;;;;;-149.00;100.00;66333.84;5100978;27;45357;-80
2021/07/09 03:04:13;;;;;;;;;9.00;7.00;;;;;-149.00;100.00;66333.84;5100162;27;45294;-80
2021/07/09 03:06:39;;;;;;;;;10.00;10.00;;;;;-149.00;100.00;66333.84;5081676;27;47541;-80
2021/07/09 03:09:09;;;;;;;;;11.00;10.00;;;;;-149.00;100.00;66333.84;5099606;27;45393;-80
2021/07/09 03:11:35;;;;;;;;;12.33;12.33;;;;;-149.00;100.00;66333.84;5100461;27;45287;-80
2021/07/09 03:14:02;;;;;;;;;9.67;8.67;;;;;-149.00;100.00;66333.84;5100012;27;45531;-80
2021/07/09 03:16:27;;;;;;;;;8.00;8.00;;;;;-149.00;100.00;66333.84;5099910;27;46091;-80
2021/07/09 03:18:52;;;;;;;;;11.67;11.67;;;;;-149.00;100.00;66333.84;5104585;27;45271;-80
2021/07/09 03:21:19;;;;;;;;;9.00;9.00;;;;;-149.00;100.00;66333.84;5099756;27;45314;-80
2021/07/09 03:23:44;;;;;;;;;13.00;12.00;;;;;-149.00;100.00;66333.84;5099528;27;45515;-80
2021/07/09 03:26:10;;;;;;;;;11.00;11.00;;;;;-149.00;100.00;66333.84;5099926;27;46020;-81
2021/07/09 03:28:35;;;;;;;;;15.00;10.33;;;;;-149.00;100.00;66333.84;5100450;27;45372;-80
2021/07/09 03:31:00;;;;;;;;;10.33;9.33;;;;;-149.00;100.00;66333.84;5100243;27;45313;-80
2021/07/09 03:33:26;;;;;;;;;12.00;10.67;;;;;-149.00;100.00;66333.84;5081565;27;47343;-80
2021/07/09 03:35:52;;;;;;;;;13.67;10.33;;;;;-149.00;100.00;66333.84;5100288;27;46184;-81
2021/07/09 03:38:19;;;;;;;;;11.00;9.67;;;;;-149.00;100.00;66333.84;5100046;27;45188;-80
2021/07/09 03:40:44;;;;;;;;;12.67;12.67;;;;;-149.00;100.00;66333.84;5082105;27;45282;-80
2021/07/09 03:43:10;;;;;;;;;11.00;10.33;;;;;-149.00;100.00;66333.84;5100408;27;45514;-81
2021/07/09 03:45:35;;;;;;;;;13.00;12.00;;;;;-149.00;100.00;66333.84;5102652;27;45272;-80
2021/07/09 03:48:00;;;;;;;;;11.00;10.67;;;;;-149.00;100.00;66333.84;5107137;27;45227;-80
2021/07/09 03:50:26;;;;;;;;;13.00;11.33;;;;;-149.00;100.00;66333.84;5087319;27;45287;-81
2021/07/09 03:52:51;;;;;;;;;12.67;12.00;;;;;-149.00;100.00;66333.84;5104867;27;45523;-81
2021/07/09 03:55:17;;;;;;;;;11.00;11.00;;;;;-149.00;100.00;66333.84;5105417;27;45389;-80
2021/07/09 03:57:42;;;;;;;;;12.33;11.33;;;;;-149.00;100.00;66333.84;5104114;27;45375;-80
2021/07/09 04:00:10;;;;;;;;;13.67;12.33;;;;;-149.00;100.00;66333.84;5103915;27;45283;-80
2021/07/09 04:02:35;;;;;;;;;12.00;12.00;;;;;-149.00;100.00;66333.84;5103666;27;45234;-80
2021/07/09 04:05:01;;;;;;;;;13.33;12.00;;;;;-149.00;100.00;66333.84;5105119;27;46259;-81
2021/07/09 04:07:26;;;;;;;;;9.67;9.67;;;;;-149.00;100.00;66333.84;5105879;27;45271;-80
2021/07/09 04:09:52;;;;;;;;;9.33;9.33;;;;;-149.00;100.00;66333.84;5086109;27;45301;-80
2021/07/09 04:12:17;;;;;;;;;11.00;11.00;;;;;-149.00;100.00;66333.84;5103779;27;45206;-80
2021/07/09 04:14:42;;;;;;;;;10.00;9.00;;;;;-149.00;100.00;66333.84;5103124;27;45550;-81
2021/07/09 04:17:08;;;;;;;;;10.33;9.33;;;;;-149.00;100.00;66333.84;5107095;27;45315;-80
2021/07/09 04:19:33;;;;;;;;;11.00;11.00;;;;;-149.00;100.00;66333.84;5103734;27;45247;-79
2021/07/09 04:21:58;;;;;;;;;15.67;13.67;;;;;-149.00;100.00;66333.84;5103576;27;45290;-82
2021/07/09 04:24:24;;;;;;;;;12.33;9.00;;;;;-149.00;100.00;66333.84;5102616;27;45188;-80
2021/07/09 04:26:49;;;;;;;;;12.33;10.67;;;;;-149.00;100.00;66333.84;5084255;27;45256;-80
2021/07/09 04:29:14;;;;;;;;;10.33;10.33;;;;;-149.00;100.00;66333.84;5102908;27;45460;-80
2021/07/09 04:31:40;;;;;;;;;10.67;10.67;;;;;-149.00;100.00;66333.84;5115996;27;45387;-80
2021/07/09 04:34:06;;;;;;;;;15.33;13.00;;;;;-149.00;100.00;66333.84;5106810;27;46204;-80
2021/07/09 04:36:31;;;;;;;;;11.00;10.33;;;;;-149.00;100.00;66333.84;5104350;27;45323;-80
2021/07/09 04:38:56;;;;;;;;;9.33;9.33;;;;;-149.00;100.00;66333.84;5103256;27;45802;-79
2021/07/09 04:41:21;;;;;;;;;12.67;11.00;;;;;-149.00;100.00;66333.84;5103815;27;45362;-80
2021/07/09 04:43:47;;;;;;;;;10.00;10.00;;;;;-149.00;100.00;66333.84;5103594;27;45299;-80
2021/07/09 04:46:12;;;;;;;;;9.00;8.67;;;;;-149.00;100.00;66333.84;5102947;27;45313;-80
2021/07/09 04:48:38;;;;;;;;;11.00;11.00;;;;;-149.00;100.00;66333.84;5101261;27;45337;-80
2021/07/09 04:51:03;;;;;;;;;13.33;12.67;;;;;-149.00;100.00;66333.84;5102471;27;45405;-80
2021/07/09 04:53:30;;;;;;;;;15.00;12.33;;;;;-149.00;100.00;66333.84;5102084;27;46242;-80
2021/07/09 04:55:55;;;;;;;;;15.00;11.33;;;;;-149.00;100.00;66333.84;5101959;27;45318;-80
2021/07/09 04:58:21;;;;;;;;;12.00;11.00;;;;;-149.00;100.00;66333.84;5101782;27;45211;-80
2021/07/09 05:00:46;;;;;;;;;13.00;12.33;;;;;-149.00;100.00;66333.84;5083989;27;46133;-80
2021/07/09 05:03:11;;;;;;;;;12.67;12.67;;;;;-149.00;100.00;66333.84;5102040;27;46297;-80
2021/07/09 05:05:37;;;;;;;;;12.00;10.33;;;;;-149.00;100.00;66333.84;5083791;27;45143;-80
2021/07/09 05:08:03;;;;;;;;;13.67;12.67;;;;;-149.00;100.00;66333.84;5102294;27;45131;-80
2021/07/09 05:10:28;;;;;;;;;11.00;10.33;;;;;-149.00;100.00;66333.84;5101932;27;45530;-80
2021/07/09 05:12:54;;;;;;;;;14.00;14.00;;;;;-149.00;100.00;66333.84;5101761;27;45247;-81
2021/07/09 05:15:19;;;;;;;;;13.67;13.67;;;;;-149.00;100.00;66333.84;5102118;27;45415;-80
2021/07/09 05:17:45;;;;;;;;;13.00;13.00;;;;;-149.00;100.00;66333.84;5102482;27;45305;-80
2021/07/09 05:20:11;;;;;;;;;10.00;8.67;;;;;-149.00;100.00;66333.84;5103679;27;45597;-80
2021/07/09 05:22:36;;;;;;;;;13.00;12.00;;;;;-149.00;100.00;66333.84;5102832;27;47538;-81
2021/07/09 05:25:03;;;;;;;;;14.33;13.67;;;;;-149.00;100.00;66333.84;5102555;27;45308;-80
2021/07/09 05:27:29;;;;;;;;;12.00;11.33;;;;;-149.00;100.00;66333.84;5102354;27;45233;-80
2021/07/09 05:29:55;;;;;;;;;12.00;12.00;;;;;-149.00;100.00;66333.84;5083725;27;46209;-80
2021/07/09 05:32:23;;;;;;;;;16.33;15.33;;;;;-149.00;100.00;66333.84;5102280;27;45558;-80
2021/07/09 05:34:50;;;;;;;;;13.00;12.00;;;;;-149.00;100.00;66333.84;5102067;27;45343;-80
2021/07/09 05:37:16;;;;;;;;;13.33;12.67;;;;;-149.00;100.00;66333.84;5083679;27;45228;-81
2021/07/09 05:39:42;;;;;;;;;12.00;12.00;;;;;-149.00;100.00;66333.84;5101457;27;45471;-80
2021/07/09 05:42:07;;;;;;;;;10.33;9.67;;;;;-149.00;100.00;66333.84;5101557;27;45321;-81
2021/07/09 05:44:33;;;;;;;;;18.33;15.33;;;;;-149.00;100.00;66333.84;5101797;27;45235;-80
2021/07/09 05:46:59;;;;;;;;;15.33;14.00;;;;;-149.00;100.00;66333.84;5101738;27;45333;-80
2021/07/09 05:49:24;;;;;;;;;13.00;13.00;;;;;-149.00;100.00;66333.84;5101390;27;45503;-81
2021/07/09 05:51:50;;;;;;;;;13.00;12.67;;;;;-149.00;100.00;66333.84;5082730;27;47300;-81
2021/07/09 05:54:15;;;;;;;;;13.67;13.33;;;;;-149.00;100.00;66333.84;5101057;27;45407;-82
2021/07/09 05:56:41;;;;;;;;;15.00;15.00;;;;;-149.00;100.00;66333.84;5103976;27;45306;-79
2021/07/09 05:59:06;;;;;;;;;13.33;13.33;;;;;-149.00;100.00;66333.84;5083968;27;46356;-80
2021/07/09 06:01:31;;;;;;;;;15.00;15.00;;;;;-149.00;100.00;66333.84;5101255;27;46134;-80
2021/07/09 06:03:57;;;;;;;;;15.00;15.00;;;;;-149.00;100.00;66333.84;5082852;27;45271;-81
2021/07/09 06:06:23;;;;;;;;;14.67;13.33;;;;;-149.00;100.00;66333.84;5101042;27;45221;-81
2021/07/09 06:08:48;;;;;;;;;16.33;15.00;;;;;-149.00;100.00;66333.84;5100489;27;45201;-81
2021/07/09 06:11:13;;;;;;;;;13.33;13.33;;;;;-149.00;100.00;66333.84;5083340;27;48400;-81
2021/07/09 06:13:39;;;;;;;;;18.00;15.67;;;;;-149.00;100.00;66333.84;5101252;27;45314;-81
2021/07/09 06:16:04;;;;;;;;;16.00;13.00;;;;;-149.00;100.00;66333.84;5102439;27;45552;-78
2021/07/09 06:18:30;;;;;;;;;14.00;11.00;;;;;-149.00;100.00;66333.84;5101865;27;45469;-80
2021/07/09 06:20:55;;;;;;;;;14.67;13.33;;;;;-149.00;100.00;66333.84;5103182;27;45358;-79
2021/07/09 06:23:21;;;;;;;;;14.00;13.00;;;;;-149.00;100.00;66333.84;5101084;27;45173;-81
2021/07/09 06:25:46;;;;;;;;;14.33;14.33;;;;;-149.00;100.00;66333.84;5101295;27;45265;-81
2021/07/09 06:28:11;;;;;;;;;14.67;13.33;;;;;-149.00;100.00;66333.84;5082722;27;45502;-84
2021/07/09 06:30:37;;;;;;;;;14.67;14.00;;;;;-149.00;100.00;66333.84;5103354;27;47322;-83
2021/07/09 06:33:03;;;;;;;;;17.00;14.33;;;;;-149.00;100.00;66333.84;5100548;27;45311;-81
2021/07/09 06:35:29;;;;;;;;;16.67;14.33;;;;;-149.00;100.00;66333.84;5101496;27;45362;-78
2021/07/09 06:37:56;;;;;;;;;15.67;14.00;;;;;-149.00;100.00;66333.84;5101175;27;45339;-78
2021/07/09 06:40:21;;;;;;;;;16.67;14.33;;;;;-149.00;100.00;66333.84;5100837;27;45309;-80
2021/07/09 06:42:46;;;;;;;;;17.67;15.33;;;;;-149.00;100.00;66333.84;5100420;27;45322;-81
2021/07/09 06:45:12;;;;;;;;;15.33;14.00;;;;;-149.00;100.00;66333.84;5100541;27;45273;-79
2021/07/09 06:47:37;;;;;;;;;15.33;14.00;;;;;-149.00;100.00;66333.84;5100564;27;45291;-80
2021/07/09 06:50:03;;;;;;;;;12.00;12.00;;;;;-149.00;100.00;66333.84;5100287;27;45215;-80
2021/07/09 06:52:28;;;;;;;;;15.00;15.00;;;;;-149.00;100.00;66333.84;5100067;27;45228;-80
2021/07/09 06:54:54;;;;;;;;;15.00;14.00;;;;;-149.00;100.00;66333.84;5081888;27;45247;-84
2021/07/09 06:57:19;;;;;;;;;12.00;12.00;;;;;-149.00;100.00;66333.84;5100382;27;45727;-81
2021/07/09 06:59:44;;;;;;;;;14.00;13.33;;;;;-149.00;100.00;66333.84;5081807;27;47005;-81
2021/07/09 07:02:11;;;;;;;;;10.67;10.67;;;;;-149.00;100.00;66333.84;5100239;27;45206;-81
2021/07/09 07:04:37;;;;;;;;;12.00;11.00;;;;;-149.00;100.00;66333.84;5100150;27;45418;-81
2021/07/09 07:07:03;;;;;;;;;12.00;12.00;;;;;-149.00;100.00;66333.84;5081748;27;45993;-82
2021/07/09 07:09:30;;;;;;;;;13.00;11.67;;;;;-149.00;100.00;66333.84;5100113;27;46104;-83
2021/07/09 07:12:01;;;;;;;;;11.67;11.67;;;;;-149.00;100.00;66333.84;5099903;27;45404;-80
2021/07/09 07:14:27;;;;;;;;;11.33;10.33;;;;;-149.00;100.00;66333.84;5100048;27;45416;-79
2021/07/09 07:16:52;;;;;;;;;12.67;12.00;;;;;-149.00;100.00;66333.84;5099870;27;45284;-81
2021/07/09 07:19:17;;;;;;;;;13.67;13.00;;;;;-149.00;100.00;66333.84;5100029;27;45343;-78
2021/07/09 07:21:43;;;;;;;;;13.67;12.67;;;;;-149.00;100.00;66333.84;5103266;27;45433;-79
2021/07/09 07:24:08;;;;;;;;;12.33;9.00;;;;;-149.00;100.00;66333.84;5103546;27;45265;-78
2021/07/09 07:26:33;;;;;;;;;11.00;10.67;;;;;-149.00;100.00;66333.84;5103554;27;45381;-77
2021/07/09 07:28:59;;;;;;;;;14.00;12.67;;;;;-149.00;100.00;66333.84;5103302;27;45362;-77
2021/07/09 07:31:24;;;;;;;;;11.67;11.00;;;;;-149.00;100.00;66333.84;5103279;27;45502;-77
2021/07/09 07:33:49;;;;;;;;;13.00;11.33;;;;;-149.00;100.00;66333.84;5102244;27;45313;-81
2021/07/09 07:36:16;;;;;;;;;14.33;14.33;;;;;-149.00;100.00;66333.84;5102747;27;45355;-80
2021/07/09 07:38:43;;;;;;;;;10.00;10.00;;;;;-149.00;100.00;66333.84;5102491;27;45496;-79
2021/07/09 07:41:08;;;;;;;;;13.00;13.00;;;;;-149.00;100.00;66333.84;5101757;27;45382;-82
2021/07/09 07:43:34;;;;;;;;;10.33;10.00;;;;;-149.00;100.00;66333.84;5083194;27;45741;-81
2021/07/09 07:45:59;;;;;;;;;15.67;10.67;;;;;-149.00;100.00;66333.84;5082639;27;46316;-82
2021/07/09 07:48:24;;;;;;;;;9.33;9.33;;;;;-149.00;100.00;66333.84;5100286;27;45400;-83
2021/07/09 07:50:50;;;;;;;;;11.67;10.67;;;;;-149.00;100.00;66333.84;5100890;27;45286;-83
2021/07/09 07:53:16;;;;;;;;;10.67;10.67;;;;;-149.00;100.00;66333.84;5082391;27;45310;-82
2021/07/09 07:55:41;;;;;;;;;14.33;13.00;;;;;-149.00;100.00;66333.84;5100947;27;46334;-82
2021/07/09 07:58:06;;;;;;;;;11.33;9.00;;;;;-149.00;100.00;66333.84;5101445;27;45388;-82
2021/07/09 08:00:32;;;;;;;;;12.00;11.67;;;;;-149.00;100.00;66333.84;5101830;27;45410;-81
2021/07/09 08:02:57;;;;;;;;;13.67;11.67;;;;;-149.00;100.00;66333.84;5098700;27;45355;-80
2021/07/09 08:05:25;;;;;;;;;13.00;12.67;;;;;-149.00;100.00;66333.84;5087825;27;45501;-80
2021/07/09 08:07:51;;;;;;;;;12.00;11.00;;;;;-149.00;100.00;66333.84;5082152;28;45392;-80
2021/07/09 08:10:17;;;;;;;;;13.67;12.67;;;;;-149.00;100.00;66333.84;5071180;28;45273;-80
2021/07/09 08:12:42;;;;;;;;;10.00;10.00;;;;;-149.00;100.00;66333.84;5082146;28;45338;-80
2021/07/09 08:15:08;;;;;;;;;12.00;10.33;;;;;-149.00;100.00;66333.84;5082265;28;45208;-81
2021/07/09 08:17:34;;;;;;;;;13.00;13.00;;;;;-149.00;100.00;66333.84;5063816;28;47260;-81
2021/07/09 08:19:59;;;;;;;;;12.00;12.00;;;;;-149.00;100.00;66333.84;5081732;28;45189;-82
2021/07/09 08:22:24;;;;;;;;;11.00;11.00;;;;;-149.00;100.00;66333.84;5099861;27;45349;-80
2021/07/09 08:24:50;;;;;;;;;12.00;11.00;;;;;-149.00;100.00;66333.84;5100931;27;45579;-80
2021/07/09 08:27:15;;;;;;;;;12.00;12.00;;;;;-149.00;100.00;66333.84;5079781;28;47453;-80
2021/07/09 08:29:42;;;;;;;;;12.00;10.67;;;;;-149.00;100.00;66333.84;5100657;27;45367;-81
2021/07/09 08:32:08;;;;;;;;;10.33;10.33;;;;;-149.00;100.00;66333.84;5100734;27;45374;-79
2021/07/09 08:34:33;;;;;;;;;10.67;10.67;;;;;-149.00;100.00;66333.84;5103358;27;45335;-78
2021/07/09 08:36:58;;;;;;;;;10.00;10.00;;;;;-149.00;100.00;66333.84;5102136;27;45897;-75
2021/07/09 08:39:24;;;;;;;;;10.33;10.33;;;;;-149.00;100.00;66333.84;5101625;27;45528;-76
2021/07/09 08:41:55;;;;;;;;;13.33;13.33;;;;;-149.00;100.00;66333.84;5102418;27;45856;-76
2021/07/09 08:44:20;;;;;;;;;9.00;9.00;;;;;-149.00;100.00;66333.84;5101880;27;45374;-77
2021/07/09 08:46:46;;;;;;;;;11.67;11.00;;;;;-149.00;100.00;66333.84;5101323;27;45254;-75
2021/07/09 08:49:16;;;;;;;;;10.33;10.33;;;;;-149.00;100.00;66333.84;5083479;27;45449;-76
2021/07/09 08:51:45;;;;;;;;;12.67;11.67;;;;;-149.00;100.00;66333.84;5102170;27;45301;-76
2021/07/09 08:54:15;;;;;;;;;10.67;9.67;;;;;-149.00;100.00;66333.84;5101182;27;45448;-78
2021/07/09 08:56:41;;;;;;;;;10.33;9.33;;;;;-149.00;100.00;66333.84;5101551;27;46082;-77
2021/07/09 08:59:07;;;;;;;;;10.67;9.67;;;;;-149.00;100.00;66333.84;5088098;27;45489;-77
2021/07/09 09:01:52;;;;;;;;;13.00;13.00;;;;;-149.00;100.00;66333.84;5081532;28;45473;-77
2021/07/09 09:04:26;;;;;;;;;12.33;11.00;;;;;-149.00;100.00;66333.84;5090517;27;45286;-77
2021/07/09 09:07:09;;;;;;;;;12.67;12.00;;;;;-149.00;100.00;66333.84;5101477;27;46077;-77
2021/07/09 09:09:36;;;;;;;;;12.33;10.67;;;;;-149.00;100.00;66333.84;5101369;27;45368;-75
2021/07/09 09:12:14;;;;;;;;;12.33;12.00;;;;;-149.00;100.00;66333.84;5099263;27;45778;-77
2021/07/09 09:14:42;;;;;;;;;13.67;12.00;;;;;-149.00;100.00;66333.84;5097021;27;45256;-79
2021/07/09 09:17:28;;;;;;;;;9.00;9.00;;;;;-149.00;100.00;66333.84;5099006;27;45633;-78
2021/07/09 09:20:11;;;;;;;;;13.67;13.00;;;;;-149.00;100.00;66333.84;5079131;27;45465;-79
2021/07/09 09:22:49;;;;;;;;;12.67;12.67;;;;;-149.00;100.00;66333.84;5099122;27;45543;-81
2021/07/09 09:25:16;;;;;;;;;12.00;10.67;;;;;-149.00;100.00;66333.84;5098440;27;46124;-82
2021/07/09 09:27:43;;;;;;;;;12.33;11.33;;;;;-149.00;100.00;66333.84;5084003;27;47758;-81
2021/07/09 09:30:13;;;;;;;;;15.00;14.00;;;;;-149.00;100.00;66333.84;5078773;27;45458;-82
2021/07/09 09:32:51;;;;;;;;;14.33;12.67;;;;;-149.00;100.00;66333.84;5099833;27;45398;-81
2021/07/09 09:35:28;;;;;;;;;12.67;11.67;;;;;-149.00;100.00;66333.84;5104675;27;45235;-82
2021/07/09 09:37:57;;;;;;;;;12.67;12.67;;;;;-149.00;100.00;66333.84;5099374;27;45316;-81
2021/07/09 09:40:25;;;;;;;;;11.33;10.33;;;;;-149.00;100.00;66333.84;5104278;27;45359;-83
2021/07/09 09:42:51;;;;;;;;;13.00;11.67;;;;;-149.00;100.00;66333.84;5099753;27;45479;-83
2021/07/09 09:45:21;;;;;;;;;14.33;14.33;;;;;-149.00;100.00;66333.84;5106888;27;45898;-80
2021/07/09 09:47:48;;;;;;;;;14.00;12.00;;;;;-149.00;100.00;66333.84;5085205;27;48180;-80
2021/07/09 09:50:25;;;;;;;;;12.00;12.00;;;;;-149.00;100.00;66333.84;5081280;27;45460;-80
2021/07/09 09:52:52;;;;;;;;;10.67;10.00;;;;;-149.00;100.00;66333.84;5101459;27;45469;-79
2021/07/09 09:55:18;;;;;;;;;14.67;13.33;;;;;-149.00;100.00;66333.84;5081547;27;45987;-82
2021/07/09 09:57:45;;;;;;;;;15.67;12.00;;;;;-149.00;100.00;66333.84;5099804;27;45628;-80
2021/07/09 10:00:28;;;;;;;;;11.33;10.33;;;;;-149.00;100.00;66333.84;5099624;27;45494;-80
2021/07/09 10:02:54;;;;;;;;;15.33;14.33;;;;;-149.00;100.00;66333.84;5098011;27;45509;-81
2021/07/09 10:05:19;;;;;;;;;13.00;12.00;;;;;-149.00;100.00;66333.84;5082251;27;45307;-81
2021/07/09 10:07:45;;;;;;;;;13.67;12.33;;;;;-149.00;100.00;66333.84;5099619;27;45889;-80
2021/07/09 10:10:12;;;;;;;;;14.33;14.33;;;;;-149.00;100.00;66333.84;5105106;27;45350;-82
2021/07/09 10:12:41;;;;;;;;;12.00;12.00;;;;;-149.00;100.00;66333.84;5087905;27;45579;-83
2021/07/09 10:15:07;;;;;;;;;12.67;11.67;;;;;-149.00;100.00;66333.84;5100910;27;45388;-80
2021/07/09 10:17:34;;;;;;;;;15.00;14.33;;;;;-149.00;100.00;66333.84;5104998;27;45155;-80
2021/07/09 10:20:01;;;;;;;;;15.33;14.33;;;;;-149.00;100.00;66333.84;5102211;27;45399;-80
2021/07/09 10:22:26;;;;;;;;;11.67;11.00;;;;;-149.00;100.00;66333.84;5100115;27;45314;-81
2021/07/09 10:24:54;;;;;;;;;14.00;12.33;;;;;-149.00;100.00;66333.84;5101664;27;45476;-81
2021/07/09 10:27:23;;;;;;;;;17.33;15.67;;;;;-149.00;100.00;66333.84;5081286;27;47133;-79
2021/07/09 10:29:50;;;;;;;;;14.00;14.00;;;;;-149.00;100.00;66333.84;5101979;27;45297;-79
2021/07/09 10:32:37;;;;;;;;;14.67;14.67;;;;;-149.00;100.00;66333.84;5107792;27;45280;-78
2021/07/09 10:35:05;;;;;;;;;12.67;11.00;;;;;-149.00;100.00;66333.84;5104784;27;45757;-81
2021/07/09 10:37:30;;;;;;;;;9.67;9.67;;;;;-149.00;100.00;66333.84;5080322;27;47220;-79
2021/07/09 10:40:15;;;;;;;;;11.67;10.67;;;;;-149.00;100.00;66333.84;5099385;27;45330;-79
2021/07/09 10:42:42;;;;;;;;;14.00;11.33;;;;;-149.00;100.00;66333.84;5081072;27;45333;-78
2021/07/09 10:45:11;;;;;;;;;11.00;11.00;;;;;-149.00;100.00;66333.84;5099042;27;46032;-80
2021/07/09 10:47:46;;;;;;;;;11.67;11.67;;;;;-149.00;100.00;66333.84;5099811;27;46226;-79
2021/07/09 10:50:33;;;;;;;;;15.00;14.00;;;;;-149.00;100.00;66333.84;5112916;27;45180;-77
2021/07/09 10:53:00;;;;;;;;;11.33;11.33;;;;;-149.00;100.00;66333.84;5098293;27;45601;-78
2021/07/09 10:55:26;;;;;;;;;11.00;10.00;;;;;-149.00;100.00;66333.84;5105071;27;45401;-81